sensor_id;sensor_type;location;lat;lon;timestamp;P1;durP1;ratioP1;P2;durP2;ratioP2
21095;SDS011;10706;49.036;12.112;2022-12-16T00:02:00;55.83;;;22.57;;
21095;SDS011;10706;49.036;12.112;2022-12-16T00:04:26;52.40;;;21.80;;
21095;SDS011;10706;49.036;12.112;2022-12-16T00:06:52;54.00;;;21.20;;
21095;SDS011;10706;49.036;12.112;2022-12-16T00:09:17;52.10;;;21.33;;
21095;SDS011;10706;49.036;12.112;2022-12-16T00:11:43;59.47;;;22.07;;
21095;SDS011;10706;49.036;12.112;2022-12-16T00:14:09;59.03;;;22.30;;
21095;SDS011;10706;49.036;12.112;2022-12-16T00:16:35;55.60;;;23.07;;
21095;SDS011;10706;49.036;12.112;2022-12-16T00:19:00;58.43;;;22.40;;
21095;SDS011;10706;49.036;12.112;2022-12-16T00:21:26;60.37;;;23.20;;
21095;SDS011;10706;49.036;12.112;2022-12-16T00:23:53;62.37;;;23.07;;
21095;SDS011;10706;49.036;12.112;2022-12-16T00:26:20;61.17;;;22.07;;
21095;SDS011;10706;49.036;12.112;2022-12-16T00:28:47;58.83;;;23.70;;
21095;SDS011;10706;49.036;12.112;2022-12-16T00:31:12;54.13;;;21.57;;
21095;SDS011;10706;49.036;12.112;2022-12-16T00:33:39;55.23;;;21.77;;
21095;SDS011;10706;49.036;12.112;2022-12-16T00:36:05;59.80;;;23.60;;
21095;SDS011;10706;49.036;12.112;2022-12-16T00:38:31;58.27;;;23.27;;
21095;SDS011;10706;49.036;12.112;2022-12-16T00:40:58;53.53;;;21.50;;
21095;SDS011;10706;49.036;12.112;2022-12-16T00:43:24;62.03;;;24.23;;
21095;SDS011;10706;49.036;12.112;2022-12-16T00:45:49;68.60;;;24.33;;
21095;SDS011;10706;49.036;12.112;2022-12-16T00:48:15;62.57;;;23.40;;
21095;SDS011;10706;49.036;12.112;2022-12-16T00:50:44;57.30;;;23.37;;
21095;SDS011;10706;49.036;12.112;2022-12-16T00:53:14;56.73;;;22.80;;
21095;SDS011;10706;49.036;12.112;2022-12-16T00:55:40;65.23;;;25.27;;
21095;SDS011;10706;49.036;12.112;2022-12-16T00:58:07;64.67;;;21.67;;
21095;SDS011;10706;49.036;12.112;2022-12-16T01:00:33;56.30;;;22.47;;
21095;SDS011;10706;49.036;12.112;2022-12-16T01:02:59;54.43;;;21.43;;
21095;SDS011;10706;49.036;12.112;2022-12-16T01:05:25;67.23;;;24.60;;
21095;SDS011;10706;49.036;12.112;2022-12-16T01:07:51;60.07;;;23.97;;
21095;SDS011;10706;49.036;12.112;2022-12-16T01:10:19;57.13;;;25.17;;
21095;SDS011;10706;49.036;12.112;2022-12-16T01:12:45;72.00;;;26.37;;
21095;SDS011;10706;49.036;12.112;2022-12-16T01:15:11;65.17;;;24.80;;
21095;SDS011;10706;49.036;12.112;2022-12-16T01:17:38;64.53;;;24.67;;
21095;SDS011;10706;49.036;12.112;2022-12-16T01:20:05;69.70;;;25.37;;
21095;SDS011;10706;49.036;12.112;2022-12-16T01:22:33;79.27;;;24.97;;
21095;SDS011;10706;49.036;12.112;2022-12-16T01:24:59;65.33;;;25.57;;
21095;SDS011;10706;49.036;12.112;2022-12-16T01:27:27;68.20;;;25.80;;
21095;SDS011;10706;49.036;12.112;2022-12-16T01:29:53;57.70;;;23.80;;
21095;SDS011;10706;49.036;12.112;2022-12-16T01:32:19;67.47;;;25.43;;
21095;SDS011;10706;49.036;12.112;2022-12-16T01:34:51;66.07;;;25.43;;
21095;SDS011;10706;49.036;12.112;2022-12-16T01:37:18;66.03;;;25.13;;
21095;SDS011;10706;49.036;12.112;2022-12-16T01:39:45;62.20;;;22.83;;
21095;SDS011;10706;49.036;12.112;2022-12-16T01:42:12;58.10;;;23.27;;
21095;SDS011;10706;49.036;12.112;2022-12-16T01:44:41;60.10;;;23.33;;
21095;SDS011;10706;49.036;12.112;2022-12-16T01:47:11;67.80;;;23.73;;
21095;SDS011;10706;49.036;12.112;2022-12-16T01:52:20;56.03;;;22.13;;
21095;SDS011;10706;49.036;12.112;2022-12-16T01:54:54;57.00;;;23.60;;
21095;SDS011;10706;49.036;12.112;2022-12-16T01:57:28;60.33;;;22.83;;
21095;SDS011;10706;49.036;12.112;2022-12-16T02:00:05;65.03;;;23.93;;
21095;SDS011;10706;49.036;12.112;2022-12-16T02:02:32;58.30;;;23.63;;
21095;SDS011;10706;49.036;12.112;2022-12-16T02:04:58;64.70;;;25.70;;
21095;SDS011;10706;49.036;12.112;2022-12-16T02:07:43;66.87;;;24.90;;
21095;SDS011;10706;49.036;12.112;2022-12-16T02:10:29;63.53;;;22.33;;
21095;SDS011;10706;49.036;12.112;2022-12-16T02:15:55;65.83;;;25.00;;
21095;SDS011;10706;49.036;12.112;2022-12-16T02:18:51;59.37;;;22.40;;
21095;SDS011;10706;49.036;12.112;2022-12-16T02:36:32;63.23;;;23.37;;
21095;SDS011;10706;49.036;12.112;2022-12-16T02:39:41;57.47;;;22.03;;
21095;SDS011;10706;49.036;12.112;2022-12-16T02:42:29;56.73;;;22.33;;
21095;SDS011;10706;49.036;12.112;2022-12-16T02:45:10;58.90;;;22.47;;
21095;SDS011;10706;49.036;12.112;2022-12-16T02:47:38;53.13;;;20.60;;
21095;SDS011;10706;49.036;12.112;2022-12-16T02:50:05;56.77;;;22.27;;
21095;SDS011;10706;49.036;12.112;2022-12-16T02:52:41;59.00;;;22.17;;
21095;SDS011;10706;49.036;12.112;2022-12-16T02:55:07;48.57;;;21.33;;
21095;SDS011;10706;49.036;12.112;2022-12-16T02:57:53;50.63;;;20.47;;
21095;SDS011;10706;49.036;12.112;2022-12-16T03:03:39;51.13;;;19.90;;
21095;SDS011;10706;49.036;12.112;2022-12-16T03:06:29;45.83;;;19.10;;
21095;SDS011;10706;49.036;12.112;2022-12-16T03:08:58;63.27;;;23.80;;
21095;SDS011;10706;49.036;12.112;2022-12-16T03:11:27;51.50;;;21.87;;
21095;SDS011;10706;49.036;12.112;2022-12-16T03:13:55;54.93;;;21.10;;
21095;SDS011;10706;49.036;12.112;2022-12-16T03:16:25;54.70;;;20.77;;
21095;SDS011;10706;49.036;12.112;2022-12-16T03:18:57;52.93;;;20.43;;
21095;SDS011;10706;49.036;12.112;2022-12-16T03:21:29;55.63;;;20.33;;
21095;SDS011;10706;49.036;12.112;2022-12-16T03:24:04;56.80;;;22.23;;
21095;SDS011;10706;49.036;12.112;2022-12-16T03:26:42;55.10;;;22.30;;
21095;SDS011;10706;49.036;12.112;2022-12-16T03:29:29;56.20;;;22.57;;
21095;SDS011;10706;49.036;12.112;2022-12-16T03:32:14;57.37;;;23.07;;
21095;SDS011;10706;49.036;12.112;2022-12-16T03:38:07;56.83;;;22.07;;
21095;SDS011;10706;49.036;12.112;2022-12-16T03:40:37;59.00;;;21.97;;
21095;SDS011;10706;49.036;12.112;2022-12-16T03:43:05;49.47;;;21.83;;
21095;SDS011;10706;49.036;12.112;2022-12-16T03:45:35;47.43;;;18.90;;
21095;SDS011;10706;49.036;12.112;2022-12-16T03:48:05;57.77;;;20.73;;
21095;SDS011;10706;49.036;12.112;2022-12-16T03:50:33;53.33;;;21.63;;
21095;SDS011;10706;49.036;12.112;2022-12-16T03:53:01;59.53;;;21.03;;
21095;SDS011;10706;49.036;12.112;2022-12-16T03:55:27;53.30;;;20.13;;
21095;SDS011;10706;49.036;12.112;2022-12-16T03:57:53;54.00;;;19.60;;
21095;SDS011;10706;49.036;12.112;2022-12-16T04:00:21;60.53;;;21.97;;
21095;SDS011;10706;49.036;12.112;2022-12-16T04:02:48;53.83;;;20.33;;
21095;SDS011;10706;49.036;12.112;2022-12-16T04:05:14;52.97;;;19.67;;
21095;SDS011;10706;49.036;12.112;2022-12-16T04:07:40;61.53;;;21.20;;
21095;SDS011;10706;49.036;12.112;2022-12-16T04:10:06;60.93;;;22.27;;
21095;SDS011;10706;49.036;12.112;2022-12-16T04:12:32;51.90;;;20.83;;
21095;SDS011;10706;49.036;12.112;2022-12-16T04:15:18;57.70;;;22.83;;
21095;SDS011;10706;49.036;12.112;2022-12-16T04:18:03;51.30;;;21.30;;
21095;SDS011;10706;49.036;12.112;2022-12-16T04:20:50;52.33;;;20.07;;
21095;SDS011;10706;49.036;12.112;2022-12-16T04:23:40;59.27;;;21.43;;
21095;SDS011;10706;49.036;12.112;2022-12-16T04:26:31;53.33;;;21.70;;
21095;SDS011;10706;49.036;12.112;2022-12-16T04:29:17;50.13;;;19.63;;
21095;SDS011;10706;49.036;12.112;2022-12-16T04:31:42;54.03;;;21.37;;
21095;SDS011;10706;49.036;12.112;2022-12-16T04:34:08;54.50;;;20.60;;
21095;SDS011;10706;49.036;12.112;2022-12-16T04:36:49;51.33;;;20.30;;
21095;SDS011;10706;49.036;12.112;2022-12-16T04:39:36;58.07;;;20.20;;
21095;SDS011;10706;49.036;12.112;2022-12-16T04:42:20;65.13;;;22.50;;
21095;SDS011;10706;49.036;12.112;2022-12-16T04:45:04;54.27;;;21.33;;
21095;SDS011;10706;49.036;12.112;2022-12-16T04:47:49;56.97;;;20.97;;
21095;SDS011;10706;49.036;12.112;2022-12-16T04:50:35;52.53;;;20.27;;
21095;SDS011;10706;49.036;12.112;2022-12-16T04:53:19;59.87;;;21.67;;
21095;SDS011;10706;49.036;12.112;2022-12-16T04:56:03;58.03;;;20.93;;
21095;SDS011;10706;49.036;12.112;2022-12-16T04:58:47;52.60;;;21.33;;
21095;SDS011;10706;49.036;12.112;2022-12-16T05:01:31;52.93;;;21.07;;
21095;SDS011;10706;49.036;12.112;2022-12-16T05:04:16;58.10;;;20.77;;
21095;SDS011;10706;49.036;12.112;2022-12-16T05:07:00;59.10;;;21.73;;
21095;SDS011;10706;49.036;12.112;2022-12-16T05:09:44;65.10;;;22.30;;
21095;SDS011;10706;49.036;12.112;2022-12-16T05:12:28;59.77;;;22.03;;
21095;SDS011;10706;49.036;12.112;2022-12-16T05:15:12;59.17;;;21.30;;
21095;SDS011;10706;49.036;12.112;2022-12-16T05:17:57;59.03;;;21.20;;
21095;SDS011;10706;49.036;12.112;2022-12-16T05:20:41;59.97;;;20.40;;
21095;SDS011;10706;49.036;12.112;2022-12-16T05:23:25;56.87;;;21.50;;
21095;SDS011;10706;49.036;12.112;2022-12-16T05:26:09;62.57;;;22.47;;
21095;SDS011;10706;49.036;12.112;2022-12-16T05:28:53;60.13;;;21.17;;
21095;SDS011;10706;49.036;12.112;2022-12-16T05:31:37;59.20;;;21.10;;
21095;SDS011;10706;49.036;12.112;2022-12-16T05:34:21;53.67;;;18.80;;
21095;SDS011;10706;49.036;12.112;2022-12-16T05:37:06;59.60;;;20.33;;
21095;SDS011;10706;49.036;12.112;2022-12-16T05:39:50;51.57;;;20.70;;
21095;SDS011;10706;49.036;12.112;2022-12-16T05:42:34;59.17;;;21.60;;
21095;SDS011;10706;49.036;12.112;2022-12-16T05:45:18;62.67;;;21.63;;
21095;SDS011;10706;49.036;12.112;2022-12-16T05:48:02;54.83;;;20.17;;
21095;SDS011;10706;49.036;12.112;2022-12-16T05:50:47;55.60;;;21.03;;
21095;SDS011;10706;49.036;12.112;2022-12-16T05:53:31;61.07;;;21.93;;
21095;SDS011;10706;49.036;12.112;2022-12-16T05:56:15;56.90;;;21.00;;
21095;SDS011;10706;49.036;12.112;2022-12-16T05:58:59;66.67;;;22.53;;
21095;SDS011;10706;49.036;12.112;2022-12-16T06:01:44;65.57;;;20.63;;
21095;SDS011;10706;49.036;12.112;2022-12-16T06:04:28;68.70;;;23.07;;
21095;SDS011;10706;49.036;12.112;2022-12-16T06:07:12;59.27;;;20.90;;
21095;SDS011;10706;49.036;12.112;2022-12-16T06:09:56;52.00;;;20.47;;
21095;SDS011;10706;49.036;12.112;2022-12-16T06:12:40;68.03;;;21.63;;
21095;SDS011;10706;49.036;12.112;2022-12-16T06:15:28;55.33;;;22.20;;
21095;SDS011;10706;49.036;12.112;2022-12-16T06:18:12;54.63;;;21.93;;
21095;SDS011;10706;49.036;12.112;2022-12-16T06:20:56;57.60;;;21.53;;
21095;SDS011;10706;49.036;12.112;2022-12-16T06:23:40;60.63;;;20.97;;
21095;SDS011;10706;49.036;12.112;2022-12-16T06:26:24;58.20;;;20.47;;
21095;SDS011;10706;49.036;12.112;2022-12-16T06:29:08;61.37;;;20.50;;
21095;SDS011;10706;49.036;12.112;2022-12-16T06:31:53;58.43;;;22.53;;
21095;SDS011;10706;49.036;12.112;2022-12-16T06:34:37;51.20;;;20.00;;
21095;SDS011;10706;49.036;12.112;2022-12-16T06:37:22;59.80;;;21.47;;
21095;SDS011;10706;49.036;12.112;2022-12-16T06:40:06;51.33;;;20.43;;
21095;SDS011;10706;49.036;12.112;2022-12-16T06:42:52;51.23;;;20.57;;
21095;SDS011;10706;49.036;12.112;2022-12-16T06:45:36;59.40;;;21.07;;
21095;SDS011;10706;49.036;12.112;2022-12-16T06:48:20;56.97;;;19.60;;
21095;SDS011;10706;49.036;12.112;2022-12-16T06:51:04;61.17;;;21.20;;
21095;SDS011;10706;49.036;12.112;2022-12-16T06:53:48;57.10;;;20.30;;
21095;SDS011;10706;49.036;12.112;2022-12-16T06:56:33;44.77;;;18.30;;
21095;SDS011;10706;49.036;12.112;2022-12-16T06:59:17;51.00;;;19.40;;
21095;SDS011;10706;49.036;12.112;2022-12-16T07:02:02;52.30;;;21.13;;
21095;SDS011;10706;49.036;12.112;2022-12-16T07:04:45;58.57;;;20.53;;
21095;SDS011;10706;49.036;12.112;2022-12-16T07:07:29;46.60;;;17.87;;
21095;SDS011;10706;49.036;12.112;2022-12-16T07:10:14;50.97;;;18.23;;
21095;SDS011;10706;49.036;12.112;2022-12-16T07:12:58;54.77;;;19.10;;
21095;SDS011;10706;49.036;12.112;2022-12-16T07:15:44;52.40;;;19.93;;
21095;SDS011;10706;49.036;12.112;2022-12-16T07:18:28;45.63;;;17.03;;
21095;SDS011;10706;49.036;12.112;2022-12-16T07:21:13;52.80;;;19.10;;
21095;SDS011;10706;49.036;12.112;2022-12-16T07:23:57;49.27;;;19.13;;
21095;SDS011;10706;49.036;12.112;2022-12-16T07:26:41;48.57;;;18.00;;
21095;SDS011;10706;49.036;12.112;2022-12-16T07:29:25;52.83;;;18.07;;
21095;SDS011;10706;49.036;12.112;2022-12-16T07:32:10;56.93;;;19.87;;
21095;SDS011;10706;49.036;12.112;2022-12-16T07:34:54;48.43;;;16.73;;
21095;SDS011;10706;49.036;12.112;2022-12-16T07:37:39;51.40;;;21.17;;
21095;SDS011;10706;49.036;12.112;2022-12-16T07:40:23;54.30;;;21.27;;
21095;SDS011;10706;49.036;12.112;2022-12-16T07:43:07;53.33;;;22.13;;
21095;SDS011;10706;49.036;12.112;2022-12-16T07:45:51;56.90;;;19.03;;
21095;SDS011;10706;49.036;12.112;2022-12-16T07:48:35;55.30;;;20.57;;
21095;SDS011;10706;49.036;12.112;2022-12-16T07:51:19;58.60;;;22.43;;
21095;SDS011;10706;49.036;12.112;2022-12-16T07:54:03;56.10;;;19.23;;
21095;SDS011;10706;49.036;12.112;2022-12-16T07:56:48;53.37;;;18.73;;
21095;SDS011;10706;49.036;12.112;2022-12-16T07:59:32;85.07;;;29.27;;
21095;SDS011;10706;49.036;12.112;2022-12-16T08:02:16;82.40;;;24.93;;
21095;SDS011;10706;49.036;12.112;2022-12-16T08:05:00;47.77;;;18.53;;
21095;SDS011;10706;49.036;12.112;2022-12-16T08:07:44;62.90;;;23.20;;
21095;SDS011;10706;49.036;12.112;2022-12-16T08:10:28;59.70;;;22.37;;
21095;SDS011;10706;49.036;12.112;2022-12-16T08:13:13;52.77;;;19.03;;
21095;SDS011;10706;49.036;12.112;2022-12-16T08:15:56;50.07;;;20.37;;
21095;SDS011;10706;49.036;12.112;2022-12-16T08:18:40;45.13;;;17.60;;
21095;SDS011;10706;49.036;12.112;2022-12-16T08:21:25;48.57;;;20.03;;
21095;SDS011;10706;49.036;12.112;2022-12-16T08:24:09;49.90;;;18.97;;
21095;SDS011;10706;49.036;12.112;2022-12-16T08:26:54;38.03;;;16.43;;
21095;SDS011;10706;49.036;12.112;2022-12-16T08:29:38;40.97;;;16.43;;
21095;SDS011;10706;49.036;12.112;2022-12-16T08:32:22;47.23;;;17.30;;
21095;SDS011;10706;49.036;12.112;2022-12-16T08:35:06;46.03;;;17.93;;
21095;SDS011;10706;49.036;12.112;2022-12-16T08:37:53;63.97;;;21.83;;
21095;SDS011;10706;49.036;12.112;2022-12-16T08:40:39;55.70;;;22.20;;
21095;SDS011;10706;49.036;12.112;2022-12-16T08:43:26;79.60;;;33.07;;
21095;SDS011;10706;49.036;12.112;2022-12-16T08:46:13;67.00;;;25.93;;
21095;SDS011;10706;49.036;12.112;2022-12-16T08:48:57;61.80;;;23.77;;
21095;SDS011;10706;49.036;12.112;2022-12-16T08:51:41;42.67;;;17.00;;
21095;SDS011;10706;49.036;12.112;2022-12-16T08:54:25;47.77;;;16.67;;
21095;SDS011;10706;49.036;12.112;2022-12-16T08:57:10;57.90;;;19.80;;
21095;SDS011;10706;49.036;12.112;2022-12-16T08:59:54;46.77;;;17.40;;
21095;SDS011;10706;49.036;12.112;2022-12-16T09:02:38;47.70;;;16.60;;
21095;SDS011;10706;49.036;12.112;2022-12-16T09:05:23;47.23;;;17.60;;
21095;SDS011;10706;49.036;12.112;2022-12-16T09:08:07;43.70;;;15.50;;
21095;SDS011;10706;49.036;12.112;2022-12-16T09:10:51;48.20;;;17.90;;
21095;SDS011;10706;49.036;12.112;2022-12-16T09:13:36;43.10;;;16.43;;
21095;SDS011;10706;49.036;12.112;2022-12-16T09:16:20;54.87;;;20.57;;
21095;SDS011;10706;49.036;12.112;2022-12-16T09:19:04;49.47;;;18.47;;
21095;SDS011;10706;49.036;12.112;2022-12-16T09:21:48;48.10;;;20.07;;
21095;SDS011;10706;49.036;12.112;2022-12-16T09:24:32;64.00;;;25.70;;
21095;SDS011;10706;49.036;12.112;2022-12-16T09:27:16;49.07;;;19.67;;
21095;SDS011;10706;49.036;12.112;2022-12-16T09:30:00;45.13;;;19.20;;
21095;SDS011;10706;49.036;12.112;2022-12-16T09:32:44;44.20;;;19.90;;
21095;SDS011;10706;49.036;12.112;2022-12-16T09:35:29;45.63;;;17.03;;
21095;SDS011;10706;49.036;12.112;2022-12-16T09:38:13;44.83;;;17.33;;
21095;SDS011;10706;49.036;12.112;2022-12-16T09:40:59;40.00;;;15.23;;
21095;SDS011;10706;49.036;12.112;2022-12-16T09:50:24;37.37;;;15.07;;
21095;SDS011;10706;49.036;12.112;2022-12-16T09:53:13;39.33;;;15.57;;
21095;SDS011;10706;49.036;12.112;2022-12-16T09:56:02;36.97;;;14.63;;
21095;SDS011;10706;49.036;12.112;2022-12-16T09:58:54;33.23;;;14.50;;
21095;SDS011;10706;49.036;12.112;2022-12-16T10:01:44;38.20;;;16.37;;
21095;SDS011;10706;49.036;12.112;2022-12-16T10:04:29;40.33;;;14.97;;
21095;SDS011;10706;49.036;12.112;2022-12-16T10:07:17;39.70;;;14.77;;
21095;SDS011;10706;49.036;12.112;2022-12-16T10:10:11;39.23;;;14.70;;
21095;SDS011;10706;49.036;12.112;2022-12-16T10:13:21;34.37;;;14.57;;
21095;SDS011;10706;49.036;12.112;2022-12-16T10:22:34;34.57;;;13.10;;
21095;SDS011;10706;49.036;12.112;2022-12-16T10:31:29;38.77;;;14.97;;
21095;SDS011;10706;49.036;12.112;2022-12-16T10:34:17;37.97;;;13.33;;
21095;SDS011;10706;49.036;12.112;2022-12-16T10:37:13;40.40;;;12.93;;
21095;SDS011;10706;49.036;12.112;2022-12-16T10:40:14;31.73;;;13.23;;
21095;SDS011;10706;49.036;12.112;2022-12-16T10:43:04;35.33;;;13.43;;
21095;SDS011;10706;49.036;12.112;2022-12-16T10:45:58;34.47;;;13.67;;
21095;SDS011;10706;49.036;12.112;2022-12-16T10:48:48;35.63;;;13.50;;
21095;SDS011;10706;49.036;12.112;2022-12-16T10:51:33;32.90;;;13.07;;
21095;SDS011;10706;49.036;12.112;2022-12-16T11:00:47;38.27;;;13.77;;
21095;SDS011;10706;49.036;12.112;2022-12-16T11:03:48;29.33;;;12.10;;
21095;SDS011;10706;49.036;12.112;2022-12-16T11:06:39;31.60;;;12.97;;
21095;SDS011;10706;49.036;12.112;2022-12-16T11:15:28;33.40;;;13.73;;
21095;SDS011;10706;49.036;12.112;2022-12-16T11:18:15;36.20;;;13.20;;
21095;SDS011;10706;49.036;12.112;2022-12-16T11:21:18;31.87;;;13.17;;
21095;SDS011;10706;49.036;12.112;2022-12-16T11:24:04;38.83;;;14.67;;
21095;SDS011;10706;49.036;12.112;2022-12-16T11:26:56;37.30;;;15.00;;
21095;SDS011;10706;49.036;12.112;2022-12-16T11:32:39;32.63;;;12.80;;
21095;SDS011;10706;49.036;12.112;2022-12-16T11:35:36;34.23;;;12.10;;
21095;SDS011;10706;49.036;12.112;2022-12-16T11:38:28;32.77;;;13.40;;
21095;SDS011;10706;49.036;12.112;2022-12-16T11:41:27;36.27;;;14.40;;
21095;SDS011;10706;49.036;12.112;2022-12-16T11:47:54;30.37;;;12.63;;
21095;SDS011;10706;49.036;12.112;2022-12-16T11:50:52;36.77;;;12.73;;
21095;SDS011;10706;49.036;12.112;2022-12-16T11:53:43;32.47;;;14.13;;
21095;SDS011;10706;49.036;12.112;2022-12-16T11:56:57;29.20;;;11.73;;
21095;SDS011;10706;49.036;12.112;2022-12-16T11:59:47;29.63;;;12.47;;
21095;SDS011;10706;49.036;12.112;2022-12-16T12:05:49;34.83;;;13.43;;
21095;SDS011;10706;49.036;12.112;2022-12-16T12:09:17;38.07;;;13.87;;
21095;SDS011;10706;49.036;12.112;2022-12-16T12:21:23;27.07;;;10.93;;
21095;SDS011;10706;49.036;12.112;2022-12-16T12:24:29;30.63;;;10.83;;
21095;SDS011;10706;49.036;12.112;2022-12-16T12:30:28;33.10;;;13.23;;
21095;SDS011;10706;49.036;12.112;2022-12-16T12:33:39;31.60;;;13.40;;
21095;SDS011;10706;49.036;12.112;2022-12-16T12:46:48;31.57;;;13.27;;
21095;SDS011;10706;49.036;12.112;2022-12-16T12:49:46;32.20;;;11.97;;
21095;SDS011;10706;49.036;12.112;2022-12-16T12:58:57;30.23;;;11.17;;
21095;SDS011;10706;49.036;12.112;2022-12-16T13:01:47;26.07;;;9.30;;
21095;SDS011;10706;49.036;12.112;2022-12-16T13:04:42;22.77;;;8.67;;
21095;SDS011;10706;49.036;12.112;2022-12-16T13:07:27;26.00;;;9.37;;
21095;SDS011;10706;49.036;12.112;2022-12-16T13:15:58;23.77;;;9.27;;
21095;SDS011;10706;49.036;12.112;2022-12-16T13:19:38;22.50;;;8.67;;
21095;SDS011;10706;49.036;12.112;2022-12-16T13:22:30;22.73;;;9.30;;
21095;SDS011;10706;49.036;12.112;2022-12-16T13:25:31;23.63;;;9.30;;
21095;SDS011;10706;49.036;12.112;2022-12-16T13:28:35;25.27;;;9.73;;
21095;SDS011;10706;49.036;12.112;2022-12-16T13:31:22;27.03;;;10.27;;
21095;SDS011;10706;49.036;12.112;2022-12-16T13:37:03;26.17;;;10.20;;
21095;SDS011;10706;49.036;12.112;2022-12-16T13:43:02;21.43;;;7.97;;
21095;SDS011;10706;49.036;12.112;2022-12-16T13:48:47;27.97;;;8.33;;
21095;SDS011;10706;49.036;12.112;2022-12-16T13:54:39;25.83;;;8.60;;
21095;SDS011;10706;49.036;12.112;2022-12-16T13:57:36;22.83;;;7.50;;
21095;SDS011;10706;49.036;12.112;2022-12-16T14:00:25;20.27;;;8.30;;
21095;SDS011;10706;49.036;12.112;2022-12-16T14:03:18;26.03;;;9.50;;
21095;SDS011;10706;49.036;12.112;2022-12-16T14:06:26;21.73;;;8.77;;
21095;SDS011;10706;49.036;12.112;2022-12-16T14:09:18;22.87;;;8.23;;
21095;SDS011;10706;49.036;12.112;2022-12-16T14:15:45;19.60;;;7.83;;
21095;SDS011;10706;49.036;12.112;2022-12-16T14:22:03;20.13;;;7.80;;
21095;SDS011;10706;49.036;12.112;2022-12-16T14:25:14;19.93;;;7.43;;
21095;SDS011;10706;49.036;12.112;2022-12-16T14:28:16;20.63;;;8.30;;
21095;SDS011;10706;49.036;12.112;2022-12-16T14:31:18;19.03;;;7.20;;
21095;SDS011;10706;49.036;12.112;2022-12-16T14:34:16;23.53;;;8.63;;
21095;SDS011;10706;49.036;12.112;2022-12-16T14:37:13;23.80;;;8.53;;
21095;SDS011;10706;49.036;12.112;2022-12-16T14:40:03;18.80;;;7.13;;
21095;SDS011;10706;49.036;12.112;2022-12-16T14:43:22;23.67;;;9.03;;
21095;SDS011;10706;49.036;12.112;2022-12-16T14:46:23;18.97;;;8.20;;
21095;SDS011;10706;49.036;12.112;2022-12-16T14:52:19;25.73;;;8.70;;
21095;SDS011;10706;49.036;12.112;2022-12-16T14:58:05;29.67;;;10.20;;
21095;SDS011;10706;49.036;12.112;2022-12-16T15:00:56;24.17;;;9.17;;
21095;SDS011;10706;49.036;12.112;2022-12-16T15:03:45;26.77;;;8.80;;
21095;SDS011;10706;49.036;12.112;2022-12-16T15:06:39;29.50;;;11.30;;
21095;SDS011;10706;49.036;12.112;2022-12-16T15:09:28;26.37;;;9.63;;
21095;SDS011;10706;49.036;12.112;2022-12-16T15:12:18;25.90;;;10.93;;
21095;SDS011;10706;49.036;12.112;2022-12-16T15:15:07;27.40;;;10.70;;
21095;SDS011;10706;49.036;12.112;2022-12-16T15:17:58;26.67;;;11.03;;
21095;SDS011;10706;49.036;12.112;2022-12-16T15:20:51;26.87;;;10.37;;
21095;SDS011;10706;49.036;12.112;2022-12-16T15:23:38;28.57;;;11.17;;
21095;SDS011;10706;49.036;12.112;2022-12-16T15:26:26;28.00;;;10.80;;
21095;SDS011;10706;49.036;12.112;2022-12-16T15:29:35;27.90;;;10.80;;
21095;SDS011;10706;49.036;12.112;2022-12-16T15:35:10;27.60;;;10.73;;
21095;SDS011;10706;49.036;12.112;2022-12-16T15:40:59;26.07;;;9.90;;
21095;SDS011;10706;49.036;12.112;2022-12-16T15:43:45;22.30;;;8.57;;
21095;SDS011;10706;49.036;12.112;2022-12-16T15:46:30;26.53;;;9.60;;
21095;SDS011;10706;49.036;12.112;2022-12-16T15:49:20;25.00;;;10.47;;
21095;SDS011;10706;49.036;12.112;2022-12-16T15:52:21;25.73;;;9.63;;
21095;SDS011;10706;49.036;12.112;2022-12-16T15:55:30;31.03;;;11.40;;
21095;SDS011;10706;49.036;12.112;2022-12-16T16:01:17;33.07;;;11.40;;
21095;SDS011;10706;49.036;12.112;2022-12-16T16:07:28;26.27;;;9.00;;
21095;SDS011;10706;49.036;12.112;2022-12-16T16:10:16;27.90;;;10.23;;
21095;SDS011;10706;49.036;12.112;2022-12-16T16:13:07;24.07;;;9.80;;
21095;SDS011;10706;49.036;12.112;2022-12-16T16:15:55;26.00;;;10.83;;
21095;SDS011;10706;49.036;12.112;2022-12-16T16:18:40;27.63;;;9.60;;
21095;SDS011;10706;49.036;12.112;2022-12-16T16:21:26;31.30;;;10.97;;
21095;SDS011;10706;49.036;12.112;2022-12-16T16:24:12;20.10;;;7.97;;
21095;SDS011;10706;49.036;12.112;2022-12-16T16:26:57;23.23;;;8.90;;
21095;SDS011;10706;49.036;12.112;2022-12-16T16:29:44;25.57;;;10.20;;
21095;SDS011;10706;49.036;12.112;2022-12-16T16:32:29;21.23;;;9.10;;
21095;SDS011;10706;49.036;12.112;2022-12-16T16:35:13;25.90;;;9.27;;
21095;SDS011;10706;49.036;12.112;2022-12-16T16:37:58;24.97;;;8.90;;
21095;SDS011;10706;49.036;12.112;2022-12-16T16:40:42;25.67;;;9.80;;
21095;SDS011;10706;49.036;12.112;2022-12-16T16:43:27;30.57;;;10.17;;
21095;SDS011;10706;49.036;12.112;2022-12-16T16:49:03;24.37;;;9.87;;
21095;SDS011;10706;49.036;12.112;2022-12-16T16:52:02;35.47;;;11.53;;
21095;SDS011;10706;49.036;12.112;2022-12-16T16:54:46;30.90;;;11.93;;
21095;SDS011;10706;49.036;12.112;2022-12-16T16:57:31;28.07;;;10.23;;
21095;SDS011;10706;49.036;12.112;2022-12-16T17:00:19;28.40;;;9.47;;
21095;SDS011;10706;49.036;12.112;2022-12-16T17:03:04;27.67;;;10.77;;
21095;SDS011;10706;49.036;12.112;2022-12-16T17:05:49;29.93;;;11.93;;
21095;SDS011;10706;49.036;12.112;2022-12-16T17:08:33;32.00;;;10.77;;
21095;SDS011;10706;49.036;12.112;2022-12-16T17:11:19;27.90;;;10.73;;
21095;SDS011;10706;49.036;12.112;2022-12-16T17:14:05;28.37;;;10.70;;
21095;SDS011;10706;49.036;12.112;2022-12-16T17:16:55;28.20;;;12.27;;
21095;SDS011;10706;49.036;12.112;2022-12-16T17:19:40;26.80;;;9.97;;
21095;SDS011;10706;49.036;12.112;2022-12-16T17:22:24;26.73;;;10.97;;
21095;SDS011;10706;49.036;12.112;2022-12-16T17:25:08;26.77;;;11.00;;
21095;SDS011;10706;49.036;12.112;2022-12-16T17:27:53;26.33;;;11.53;;
21095;SDS011;10706;49.036;12.112;2022-12-16T17:30:37;33.33;;;12.27;;
21095;SDS011;10706;49.036;12.112;2022-12-16T17:33:22;35.13;;;13.83;;
21095;SDS011;10706;49.036;12.112;2022-12-16T17:36:09;38.67;;;14.03;;
21095;SDS011;10706;49.036;12.112;2022-12-16T17:38:55;30.10;;;11.90;;
21095;SDS011;10706;49.036;12.112;2022-12-16T17:41:39;36.13;;;12.03;;
21095;SDS011;10706;49.036;12.112;2022-12-16T17:44:24;37.20;;;13.70;;
21095;SDS011;10706;49.036;12.112;2022-12-16T17:47:08;37.40;;;14.47;;
21095;SDS011;10706;49.036;12.112;2022-12-16T17:49:52;38.97;;;14.07;;
21095;SDS011;10706;49.036;12.112;2022-12-16T17:52:37;36.37;;;14.87;;
21095;SDS011;10706;49.036;12.112;2022-12-16T17:55:21;40.10;;;15.73;;
21095;SDS011;10706;49.036;12.112;2022-12-16T17:58:06;39.60;;;16.07;;
21095;SDS011;10706;49.036;12.112;2022-12-16T18:00:50;38.13;;;16.33;;
21095;SDS011;10706;49.036;12.112;2022-12-16T18:03:35;38.20;;;16.57;;
21095;SDS011;10706;49.036;12.112;2022-12-16T18:06:19;43.17;;;15.23;;
21095;SDS011;10706;49.036;12.112;2022-12-16T18:09:03;37.77;;;15.83;;